Time;durP1;ratioP1;P1;durP2;ratioP2;P2;SDS_P1;SDS_P2;PMS_P1;PMS_P2;Temp;Humidity;BMP_temperature;BMP_pressure;BME280_temperature;BME280_humidity;BME280_pressure;Samples;Min_cycle;Max_cycle;Signal;HPM_P1;HPM_P2
2022/11/08 00:02:59;;;;;;;;;;;;;;;8.31;100.00;100340.22;4501151;31;34988;-78
2022/11/08 00:15:00;;;;;;;;;;;;;;;8.34;100.00;100338.84;4501705;31;35051;-78
2022/11/08 00:17:46;;;;;;;;;;;;;;;8.28;100.00;100334.47;4501603;31;35253;-78
2022/11/08 00:20:33;;;;;;;;;;;;;;;8.47;100.00;100343.72;4501905;31;35678;-78
2022/11/08 00:23:18;;;;;;;;;;;;;;;8.31;100.00;100342.13;4503537;31;34183;-78
2022/11/08 00:26:05;;;;;;;;;;;;;;;8.31;100.00;100344.84;4503476;31;34972;-78
2022/11/08 00:28:52;;;;;;;;;;;;;;;8.31;100.00;100336.66;4503457;31;36234;-78
2022/11/08 00:31:39;;;;;;;;;;;;;;;6.64;100.00;100347.34;4502522;31;35741;-78
2022/11/08 00:34:25;;;;;;;;;;;;;;;7.79;100.00;100346.06;4503419;31;34294;-78
2022/11/08 00:37:11;;;;;;;;;;;;;;;8.34;100.00;100339.66;4503337;31;35818;-78
2022/11/08 00:39:58;;;;;;;;;;;;;;;8.21;100.00;100347.62;4503182;31;35241;-78
2022/11/08 00:42:44;;;;;;;;;;;;;;;8.18;100.00;100349.00;4491260;31;35744;-78
2022/11/08 00:45:31;;;;;;;;;;;;;;;8.38;100.00;100345.37;4502154;31;34976;-78
2022/11/08 00:48:18;;;;;;;;;;;;;;;8.17;100.00;100346.53;4502305;31;35002;-78
2022/11/08 00:51:05;;;;;;;;;;;;;;;8.37;100.00;100342.91;4503171;31;36209;-78
2022/11/08 00:53:52;;;;;;;;;;;;;;;8.27;100.00;100335.59;4503363;31;35047;-78
2022/11/08 00:56:39;;;;;;;;;;;;;;;7.89;100.00;100341.41;4502505;31;34107;-78
2022/11/08 00:59:25;;;;;;;;;;;;;;;6.94;100.00;100341.97;4502292;31;35771;-78
2022/11/08 01:02:11;;;;;;;;;;;;;;;7.66;100.00;100334.63;4502338;31;36185;-78
2022/11/08 01:04:58;;;;;;;;;;;;;;;7.98;100.00;100327.22;4503250;31;35002;-78
2022/11/08 01:07:43;;;;;;;;;;;;;;;7.61;100.00;100337.38;4502249;31;34120;-78
2022/11/08 01:10:30;;;;;;;;;;;;;;;7.11;100.00;100341.72;4502097;31;34988;-78
2022/11/08 01:13:17;;;;;;;;;;;;;;;6.50;100.00;100347.03;4502087;31;35187;-78
2022/11/08 01:16:07;;;;;;;;;;;;;;;7.47;100.00;100339.00;4491265;31;34860;-78
2022/11/08 01:18:56;;;;;;;;;;;;;;;7.70;100.00;100345.81;4502189;31;34065;-78
2022/11/08 01:21:42;;;;;;;;;;;;;;;7.84;100.00;100337.88;4502227;31;34924;-77
2022/11/08 01:24:28;;;;;;;;;;;;;;;7.68;100.00;100328.09;4502996;31;34378;-78
2022/11/08 01:27:16;;;;;;;;;;;;;;;7.82;100.00;100323.69;4501954;31;35647;-78
2022/11/08 01:30:03;;;;;;;;;;;;;;;7.03;100.00;100328.66;4503038;31;34184;-77
2022/11/08 01:32:49;;;;;;;;;;;;;;;6.77;100.00;100330.47;4502836;31;35739;-77
2022/11/08 01:35:35;;;;;;;;;;;;;;;7.41;100.00;100327.28;4502994;31;35187;-78
2022/11/08 01:38:22;;;;;;;;;;;;;;;7.70;100.00;100325.91;4502898;31;34933;-78
2022/11/08 01:41:10;;;;;;;;;;;;;;;7.93;100.00;100325.31;4502965;31;34359;-78
2022/11/08 01:43:57;;;;;;;;;;;;;;;7.47;100.00;100328.09;4492351;31;34911;-78
2022/11/08 01:46:44;;;;;;;;;;;;;;;7.48;100.00;100328.91;4495520;31;35244;-78
2022/11/08 01:49:37;;;;;;;;;;;;;;;7.71;100.00;100327.53;4506836;31;34838;-78
2022/11/08 01:52:34;;;;;;;;;;;;;;;7.59;100.00;100320.44;4506778;31;34105;-78
2022/11/08 01:55:22;;;;;;;;;;;;;;;6.80;100.00;100327.22;4506665;31;35009;-77
2022/11/08 01:58:09;;;;;;;;;;;;;;;7.11;100.00;100327.28;4495562;31;35234;-78
2022/11/08 02:00:56;;;;;;;;;;;;;;;6.50;100.00;100327.97;4518708;31;35821;-78
2022/11/08 02:03:43;;;;;;;;;;;;;;;7.26;100.00;100310.94;4506596;31;34042;-77
2022/11/08 02:06:29;;;;;;;;;;;;;;;7.57;100.00;100314.47;4506653;31;35688;-78
2022/11/08 02:09:15;;;;;;;;;;;;;;;7.04;100.00;100311.19;4506564;31;36089;-78
2022/11/08 02:12:02;;;;;;;;;;;;;;;6.64;100.00;100309.22;4518699;31;34968;-78
2022/11/08 02:14:48;;;;;;;;;;;;;;;6.67;100.00;100309.50;4506684;31;34228;-77
2022/11/08 02:17:34;;;;;;;;;;;;;;;7.07;100.00;100302.47;4495198;31;35830;-78
2022/11/08 02:20:20;;;;;;;;;;;;;;;6.89;100.00;100306.56;4518514;31;35280;-78
2022/11/08 02:23:19;;;;;;;;;;;;;;;7.04;100.00;100307.66;4506571;31;35631;-77
2022/11/08 02:26:06;;;;;;;;;;;;;;;7.40;100.00;100314.75;4518426;31;34950;-78
2022/11/08 02:28:51;;;;;;;;;;;;;;;7.46;100.00;100304.66;4518674;31;35006;-77
2022/11/08 02:31:38;;;;;;;;;;;;;;;7.55;100.00;100313.12;4506460;31;35259;-77
2022/11/08 02:34:28;;;;;;;;;;;;;;;7.34;100.00;100323.19;4518414;31;35606;-77
2022/11/08 02:37:15;;;;;;;;;;;;;;;7.18;100.00;100319.66;4506658;31;34149;-77
2022/11/08 02:40:03;;;;;;;;;;;;;;;7.44;100.00;100312.28;4506496;31;34878;-78
2022/11/08 02:42:50;;;;;;;;;;;;;;;7.22;100.00;100312.56;4500753;31;35324;-78
2022/11/08 02:45:36;;;;;;;;;;;;;;;7.13;100.00;100311.47;4490619;31;34896;-78
2022/11/08 02:48:23;;;;;;;;;;;;;;;6.97;100.00;100314.19;4501542;31;34181;-77
2022/11/08 02:51:16;;;;;;;;;;;;;;;7.11;100.00;100325.34;4502528;31;34915;-77
2022/11/08 02:54:02;;;;;;;;;;;;;;;7.00;100.00;100318.25;4501339;31;36126;-77
2022/11/08 02:56:49;;;;;;;;;;;;;;;7.06;100.00;100319.94;4490528;31;35771;-77
2022/11/08 02:59:36;;;;;;;;;;;;;;;7.19;100.00;100327.53;4502479;31;34188;-77
2022/11/08 03:02:22;;;;;;;;;;;;;;;7.31;99.74;100321.81;4502404;31;35019;-77
2022/11/08 03:05:08;;;;;;;;;;;;;;;7.33;98.68;100321.56;4502195;31;35281;-78
2022/11/08 03:07:56;;;;;;;;;;;;;;;7.32;98.82;100315.31;4502247;31;34831;-78
2022/11/08 03:10:42;;;;;;;;;;;;;;;7.32;98.70;100317.22;4485661;32;34910;-78
2022/11/08 03:13:29;;;;;;;;;;;;;;;6.86;100.00;100322.59;4485667;32;34811;-77
2022/11/08 03:16:15;;;;;;;;;;;;;;;7.31;98.25;100321.00;4486463;32;35307;-78
2022/11/08 03:19:01;;;;;;;;;;;;;;;7.33;96.34;100327.84;4486464;32;34968;-78
2022/11/08 03:21:48;;;;;;;;;;;;;;;7.25;96.19;100325.66;4485617;32;34240;-78
2022/11/08 03:24:34;;;;;;;;;;;;;;;7.24;95.41;100334.91;4486381;32;35014;-78
2022/11/08 03:27:20;;;;;;;;;;;;;;;7.22;94.92;100332.44;4485403;32;36232;-78
2022/11/08 03:30:06;;;;;;;;;;;;;;;6.80;97.53;100337.28;4485482;32;35763;-77
2022/11/08 03:32:52;;;;;;;;;;;;;;;6.69;98.43;100329.13;4485199;32;34101;-78
2022/11/08 03:35:38;;;;;;;;;;;;;;;6.30;100.00;100332.22;4486367;32;35744;-78
2022/11/08 03:38:25;;;;;;;;;;;;;;;6.72;100.00;100328.56;4485401;32;35250;-78
2022/11/08 03:41:11;;;;;;;;;;;;;;;7.02;99.94;100334.34;4486612;31;34984;-79
2022/11/08 03:43:59;;;;;;;;;;;;;;;7.17;99.59;100329.75;4490198;31;34106;-78
2022/11/08 03:46:45;;;;;;;;;;;;;;;7.05;100.00;100334.63;4501894;31;35017;-78
2022/11/08 03:49:31;;;;;;;;;;;;;;;6.46;100.00;100341.28;4490141;31;36142;-78
2022/11/08 03:52:17;;;;;;;;;;;;;;;6.58;100.00;100338.34;4502026;31;35655;-78
2022/11/08 03:55:05;;;;;;;;;;;;;;;7.18;98.77;100336.00;4488496;31;34947;-78
2022/11/08 03:57:51;;;;;;;;;;;;;;;7.01;99.51;100341.72;4489912;31;34958;-78
2022/11/08 04:00:37;;;;;;;;;;;;;;;7.21;97.97;100339.00;4501739;31;35272;-78
2022/11/08 04:03:24;;;;;;;;;;;;;;;7.03;99.92;100342.28;4489775;31;35770;-79
2022/11/08 04:06:10;;;;;;;;;;;;;;;7.09;99.27;100337.66;4489891;31;34973;-78
2022/11/08 04:08:57;;;;;;;;;;;;;;;6.55;100.00;100332.63;4501640;31;34922;-78
2022/11/08 04:21:23;;;;;;;;;;;;;;;6.51;100.00;100332.31;4501581;31;34950;-78
2022/11/08 04:24:10;;;;;;;;;;;;;;;5.52;100.00;100331.19;4491450;31;35269;-78
2022/11/08 04:26:58;;;;;;;;;;;;;;;5.70;100.00;100328.06;4501315;31;34927;-78
2022/11/08 04:29:50;;;;;;;;;;;;;;;5.99;100.00;100338.63;4495743;31;35063;-78
2022/11/08 04:32:37;;;;;;;;;;;;;;;6.62;100.00;100327.72;4505388;31;35841;-77
2022/11/08 04:35:23;;;;;;;;;;;;;;;6.63;100.00;100326.62;4505009;31;35308;-78
2022/11/08 04:38:09;;;;;;;;;;;;;;;6.84;99.22;100322.88;4505212;31;34970;-77
2022/11/08 04:41:00;;;;;;;;;;;;;;;6.72;100.00;100325.84;4505214;31;34165;-78
2022/11/08 04:43:55;;;;;;;;;;;;;;;6.68;100.00;100316.56;4505740;31;34928;-78
2022/11/08 04:46:42;;;;;;;;;;;;;;;6.81;99.69;100312.53;4517070;31;35302;-78
2022/11/08 04:49:28;;;;;;;;;;;;;;;6.53;100.00;100321.97;4505144;31;34894;-78
2022/11/08 04:52:15;;;;;;;;;;;;;;;6.52;100.00;100312.19;4516964;31;35005;-78
2022/11/08 04:55:02;;;;;;;;;;;;;;;5.92;100.00;100316.22;4505092;31;36009;-78
2022/11/08 04:57:49;;;;;;;;;;;;;;;6.19;100.00;100325.09;4505084;31;35207;-77
2022/11/08 05:00:36;;;;;;;;;;;;;;;5.67;100.00;100312.28;4501202;31;34948;-82
2022/11/08 05:03:22;;;;;;;;;;;;;;;5.37;100.00;100308.25;4508906;31;34151;-83
2022/11/08 05:06:10;;;;;;;;;;;;;;;4.28;100.00;100317.50;4517866;31;35799;-82
2022/11/08 05:08:57;;;;;;;;;;;;;;;4.40;100.00;100317.34;4496417;31;35273;-82
2022/11/08 05:11:46;;;;;;;;;;;;;;;5.79;100.00;100312.91;4507283;31;35642;-82
2022/11/08 05:14:32;;;;;;;;;;;;;;;5.98;100.00;100320.66;4506993;31;34086;-82
2022/11/08 05:17:19;;;;;;;;;;;;;;;5.43;100.00;100311.00;4506827;31;34965;-82
2022/11/08 05:23:24;;;;;;;;;;;;;;;5.58;100.00;100319.28;4518746;31;35645;-82
2022/11/08 05:26:14;;;;;;;;;;;;;;;5.59;100.00;100326.38;4518741;31;34100;-82
2022/11/08 05:29:01;;;;;;;;;;;;;;;5.79;100.00;100320.25;4507009;31;34931;-82
2022/11/08 05:31:50;;;;;;;;;;;;;;;5.21;100.00;100327.41;4495718;31;36234;-82
2022/11/08 05:34:37;;;;;;;;;;;;;;;5.47;100.00;100334.69;4518960;31;34836;-82
2022/11/08 05:37:24;;;;;;;;;;;;;;;5.24;100.00;100333.16;4518906;31;34107;-82
2022/11/08 05:40:13;;;;;;;;;;;;;;;5.68;100.00;100341.09;4518797;31;35035;-82
2022/11/08 05:42:59;;;;;;;;;;;;;;;5.38;100.00;100336.28;4518761;31;35304;-82
2022/11/08 05:45:55;;;;;;;;;;;;;;;6.06;100.00;100344.63;4507671;31;34849;-81
2022/11/08 05:48:47;;;;;;;;;;;;;;;6.16;100.00;100339.25;4518691;31;34096;-82
2022/11/08 05:51:34;;;;;;;;;;;;;;;6.14;100.00;100349.56;4506897;31;34994;-82
2022/11/08 05:54:25;;;;;;;;;;;;;;;6.24;100.00;100341.47;4518679;31;35264;-82
2022/11/08 05:57:12;;;;;;;;;;;;;;;4.44;100.00;100354.59;4506717;31;34859;-82
2022/11/08 06:00:10;;;;;;;;;;;;;;;4.94;100.00;100348.06;4518727;31;34221;-81
2022/11/08 06:02:58;;;;;;;;;;;;;;;6.05;100.00;100346.53;4518780;31;35809;-81
2022/11/08 06:05:48;;;;;;;;;;;;;;;6.17;100.00;100338.16;4495654;31;35300;-82
2022/11/08 06:08:44;;;;;;;;;;;;;;;6.42;100.00;100345.63;4508137;31;34947;-82
2022/11/08 06:11:37;;;;;;;;;;;;;;;6.19;100.00;100344.16;4507361;31;35034;-82
2022/11/08 06:14:23;;;;;;;;;;;;;;;4.34;100.00;100359.88;4506727;31;34819;-81
2022/11/08 06:17:10;;;;;;;;;;;;;;;4.79;100.00;100355.25;4505713;31;36119;-81
2022/11/08 06:19:57;;;;;;;;;;;;;;;5.48;100.00;100352.63;4518581;31;34913;-81
2022/11/08 06:22:49;;;;;;;;;;;;;;;5.49;100.00;100358.87;4506997;31;34115;-81
2022/11/08 06:25:36;;;;;;;;;;;;;;;5.58;100.00;100360.88;4518727;31;35018;-81
2022/11/08 06:28:30;;;;;;;;;;;;;;;5.82;100.00;100366.75;4507301;31;35233;-81
2022/11/08 06:31:16;;;;;;;;;;;;;;;6.25;100.00;100370.31;4506459;31;34887;-81
2022/11/08 06:34:04;;;;;;;;;;;;;;;5.19;100.00;100360.28;4506730;31;34107;-81
2022/11/08 06:36:51;;;;;;;;;;;;;;;5.69;100.00;100363.66;4506562;31;34921;-81
2022/11/08 06:39:37;;;;;;;;;;;;;;;5.88;100.00;100362.16;4495190;31;36199;-82
2022/11/08 06:46:55;;;;;;;;;;;;;;;5.20;100.00;100361.91;4519007;31;34850;-81
2022/11/08 06:49:44;;;;;;;;;;;;;;;5.54;100.00;100369.81;4518642;31;35004;-81
2022/11/08 06:52:31;;;;;;;;;;;;;;;5.84;100.00;100375.47;4495118;31;35226;-81
2022/11/08 06:55:21;;;;;;;;;;;;;;;5.64;100.00;100369.91;4507017;31;36275;-81
2022/11/08 06:58:08;;;;;;;;;;;;;;;5.27;100.00;100378.00;4518643;31;34207;-81
2022/11/08 07:01:01;;;;;;;;;;;;;;;6.27;100.00;100373.59;4506768;31;35095;-81
2022/11/08 07:03:48;;;;;;;;;;;;;;;6.63;100.00;100381.09;4506668;31;35445;-82
2022/11/08 07:06:34;;;;;;;;;;;;;;;7.15;100.00;100380.97;4518500;31;34943;-81
2022/11/08 07:09:27;;;;;;;;;;;;;;;7.36;100.00;100375.53;4507036;31;34043;-82
2022/11/08 07:12:14;;;;;;;;;;;;;;;7.46;100.00;100382.91;4506404;31;35708;-81
2022/11/08 07:15:01;;;;;;;;;;;;;;;6.91;100.00;100375.19;4506245;31;36175;-81
2022/11/08 07:17:53;;;;;;;;;;;;;;;6.67;100.00;100377.56;4506838;31;34904;-81
2022/11/08 07:20:44;;;;;;;;;;;;;;;6.63;100.00;100379.22;4506767;31;34114;-78
2022/11/08 07:27:56;;;;;;;;;;;;;;;6.48;100.00;100387.28;4517985;31;35185;-81
2022/11/08 07:30:43;;;;;;;;;;;;;;;6.54;100.00;100383.50;4506318;31;35676;-80
2022/11/08 07:33:32;;;;;;;;;;;;;;;7.24;100.00;100383.16;4506397;31;34119;-81
2022/11/08 07:36:20;;;;;;;;;;;;;;;7.25;100.00;100382.87;4506188;31;35788;-81
2022/11/08 07:39:08;;;;;;;;;;;;;;;7.63;100.00;100387.00;4506334;31;35299;-80
2022/11/08 07:41:55;;;;;;;;;;;;;;;7.65;100.00;100384.81;4518141;31;34819;-81
2022/11/08 07:44:43;;;;;;;;;;;;;;;7.55;100.00;100384.81;4506250;31;34143;-82
2022/11/08 07:47:32;;;;;;;;;;;;;;;7.27;100.00;100390.81;4503197;31;34926;-82
2022/11/08 07:50:21;;;;;;;;;;;;;;;7.13;100.00;100388.59;4490173;31;35327;-81
2022/11/08 07:53:11;;;;;;;;;;;;;;;7.44;100.00;100400.34;4490601;31;34959;-81
2022/11/08 07:55:59;;;;;;;23.85;10.65;;;;;;;7.46;100.00;100401.97;4501836;31;34183;-82
2022/11/08 07:58:46;;;;;;;35.25;11.77;;;;;;;7.89;100.00;100385.09;4491346;31;34645;-87
2022/11/08 08:01:33;;;;;;;37.65;12.25;;;;;;;7.53;100.00;100388.91;4484284;31;35413;-87
2022/11/08 08:04:22;;;;;;;26.65;11.30;;;;;;;8.32;100.00;100391.00;4493664;31;34503;-87
2022/11/08 08:07:11;;;;;;;22.08;11.12;;;;;;;8.41;100.00;100382.25;4486449;31;34280;-87
2022/11/08 08:10:03;;;;;;;46.22;13.23;;;;;;;8.72;100.00;100391.16;4489716;31;33708;-87
2022/11/08 08:12:53;;;;;;;37.92;13.38;;;;;;;8.63;100.00;100392.84;4498163;31;33945;-87
2022/11/08 08:15:40;;;;;;;28.85;12.10;;;;;;;8.92;100.00;100401.19;4501901;31;34053;-87
2022/11/08 08:18:30;;;;;;;50.00;14.85;;;;;;;9.01;100.00;100397.56;4499820;31;34685;-87
2022/11/08 08:21:17;;;;;;;37.50;14.90;;;;;;;8.58;100.00;100398.31;4496547;31;34670;-87
2022/11/08 08:24:05;;;;;;;32.88;14.65;;;;;;;8.85;100.00;100390.56;4504398;31;33402;-87
2022/11/08 08:26:53;;;;;;;31.80;14.73;;;;;;;8.80;100.00;100393.31;4496064;31;35454;-87
2022/11/08 08:29:40;;;;;;;47.92;15.98;;;;;;;8.98;100.00;100389.13;4492186;31;33908;-87
2022/11/08 08:32:27;;;;;;;31.48;15.35;;;;;;;8.55;100.00;100386.84;4500135;31;34452;-87
2022/11/08 08:35:18;;;;;;;37.38;16.73;;;;;;;9.30;100.00;100385.91;4504937;31;34509;-87
2022/11/08 08:38:07;;;;;;;27.35;14.85;;;;;;;9.06;100.00;100395.91;4507751;31;34438;-87
2022/11/08 08:40:59;;;;;;;35.70;16.70;;;;;;;9.50;100.00;100384.94;4507091;31;34022;-87
2022/11/08 08:43:46;;;;;;;27.67;14.75;;;;;;;9.51;100.00;100394.78;4496416;31;34371;-87
2022/11/08 08:46:32;;;;;;;47.15;18.08;;;;;;;9.80;100.00;100400.28;4496597;31;34887;-87
2022/11/08 08:49:20;;;;;;;45.47;16.90;;;;;;;9.79;100.00;100401.41;4510071;31;35949;-86
2022/11/08 08:52:07;;;;;;;37.95;15.82;;;;;;;9.41;100.00;100400.31;4510732;31;35157;-87
2022/11/08 08:54:55;;;;;;;35.72;15.23;;;;;;;9.88;100.00;100402.41;4509672;31;35693;-87
2022/11/08 08:57:45;;;;;;;58.80;16.52;;;;;;;9.50;100.00;100395.06;4508805;31;34513;-87
2022/11/08 09:00:35;;;;;;;52.30;16.42;;;;;;;8.71;100.00;100406.75;4495688;31;35377;-88
2022/11/08 09:03:45;;;;;;;34.28;17.92;;;;;;;9.42;100.00;100397.31;4492638;31;34033;-87
2022/11/08 09:06:32;;;;;;;39.00;18.15;;;;;;;9.94;100.00;100394.97;4512595;31;34731;-85
2022/11/08 09:09:19;;;;;;;36.30;17.75;;;;;;;10.16;100.00;100402.69;4515185;31;35971;-87
2022/11/08 09:12:07;;;;;;;34.33;16.87;;;;;;;9.95;100.00;100395.78;4514369;31;34139;-87
2022/11/08 09:14:59;;;;;;;35.15;17.08;;;;;;;9.80;100.00;100411.22;4513286;31;33790;-87
2022/11/08 09:17:47;;;;;;;37.92;18.12;;;;;;;10.09;100.00;100407.69;4515432;31;33255;-87
2022/11/08 09:20:35;;;;;;;34.83;17.62;;;;;;;10.13;100.00;100416.94;4515616;31;36079;-87
2022/11/08 09:23:23;;;;;;;40.22;18.52;;;;;;;10.19;100.00;100418.56;4501882;31;34621;-86
2022/11/08 09:26:12;;;;;;;37.70;18.87;;;;;;;10.23;100.00;100419.59;4511266;31;33901;-87
2022/11/08 09:29:00;;;;;;;37.63;18.98;;;;;;;9.91;100.00;100418.25;4487931;31;35124;-87
2022/11/08 09:31:50;;;;;;;42.92;20.05;;;;;;;10.23;100.00;100418.78;4517099;31;35415;-87
2022/11/08 09:34:36;;;;;;;40.97;20.35;;;;;;;9.66;100.00;100427.50;4517133;31;35544;-87
2022/11/08 09:37:24;;;;;;;48.25;23.20;;;;;;;10.00;100.00;100423.13;4516396;31;34282;-87
2022/11/08 09:40:27;;;;;;;39.47;21.62;;;;;;;10.26;100.00;100416.28;4515958;31;34910;-87
2022/11/08 09:43:54;;;;;;;44.30;21.40;;;;;;;10.56;100.00;100411.62;4503667;31;34907;-87
2022/11/08 09:46:56;;;;;;;47.88;21.90;;;;;;;10.73;100.00;100409.22;4515715;31;34640;-86
2022/11/08 09:50:02;;;;;;;45.28;22.48;;;;;;;10.58;100.00;100409.38;4513742;31;34811;-88
2022/11/08 09:53:17;;;;;;;48.45;22.42;;;;;;;10.30;100.00;100411.91;4499535;31;35477;-87
2022/11/08 09:56:22;;;;;;;51.70;24.92;;;;;;;10.55;100.00;100410.78;4513857;31;36085;-88
2022/11/08 09:59:27;;;;;;;46.58;23.55;;;;;;;10.85;100.00;100413.44;4510716;31;34663;-90
2022/11/08 10:02:22;;;;;;;52.33;25.85;;;;;;;10.87;100.00;100406.56;4511126;31;34293;-88
2022/11/08 10:05:14;;;;;;;51.15;23.17;;;;;;;10.82;100.00;100414.03;4498657;31;34972;-88
2022/11/08 10:08:10;;;;;;;49.50;24.67;;;;;;;11.21;100.00;100408.28;4502853;31;34883;-87
2022/11/08 10:11:08;;;;;;;;;;;;;;;11.30;100.00;100409.25;4497589;31;34159;-89
2022/11/08 10:17:08;;;;;;;;;;;;;;;10.49;100.00;100403.72;4513096;31;35597;-89
2022/11/08 10:20:20;;;;;;;;;;;;;;;10.90;100.00;100405.97;4512564;31;35302;-89
2022/11/08 10:23:25;;;;;;;;;;;;;;;10.57;100.00;100397.59;4502104;31;35694;-88
2022/11/08 10:26:19;;;;;;;;;;;;;;;11.22;100.00;100391.53;4515329;31;34148;-89
2022/11/08 10:29:16;;;;;;;;;;;;;;;11.22;100.00;100391.53;4501524;31;34914;-87
2022/11/08 10:32:10;;;;;;;;;;;;;;;11.56;100.00;100390.47;4501780;31;35256;-86
2022/11/08 10:35:03;;;;;;;;;;;;;;;11.90;100.00;100387.47;4517276;31;35670;-88
2022/11/08 10:38:29;;;;;;;;;;;;;;;11.41;100.00;100377.81;4506956;31;34072;-88
2022/11/08 10:41:39;;;;;;;;;;;;;;;11.78;100.00;100378.03;4487252;31;35218;-88
2022/11/08 10:44:27;;;;;;;;;;;;;;;11.98;100.00;100368.63;4516776;31;35315;-88
2022/11/08 10:47:29;;;;;;;;;;;;;;;11.41;100.00;100366.84;4506953;31;36789;-89
2022/11/08 10:50:20;;;;;;;;;;;;;;;11.60;100.00;100369.53;4502854;31;34064;-89
2022/11/08 10:53:11;;;;;;;;;;;;;;;11.65;100.00;100354.91;4505665;31;34942;-88
2022/11/08 10:56:10;;;;;;;;;;;;;;;11.49;100.00;100351.59;4504975;31;34694;-89
2022/11/08 10:58:57;;;;;;;;;;;;;;;11.78;100.00;100361.53;4516561;31;35582;-86
2022/11/08 11:01:49;;;;;;;;;;;;;;;10.69;100.00;100361.56;4519509;31;34461;-89
2022/11/08 11:04:43;;;;;;;;;;;;;;;11.55;100.00;100358.63;4515698;31;35913;-89
2022/11/08 11:07:33;;;;;;;;;;;;;;;11.78;100.00;100358.81;4518440;31;35528;-88
2022/11/08 11:10:29;;;;;;;;;;;;;;;11.87;100.00;100354.31;4494103;31;35181;-88
2022/11/08 11:13:22;;;;;;;;;;;;;;;11.65;100.00;100350.25;4514039;31;34435;-89
2022/11/08 11:16:15;;;;;;;;;;;;;;;12.11;100.00;100349.44;4516258;31;35055;-88
2022/11/08 11:19:03;;;;;;;;;;;;;;;12.27;100.00;100360.97;4504030;31;36137;-88
2022/11/08 11:21:58;;;;;;;;;;;;;;;11.76;100.00;100361.06;4503887;31;34935;-89
2022/11/08 11:24:47;;;;;;;;;;;;;;;12.07;100.00;100356.66;4515994;31;33970;-88
2022/11/08 11:27:36;;;;;;;;;;;;;;;12.48;100.00;100353.09;4506639;31;35891;-86
2022/11/08 11:30:23;;;;;;;;;;;;;;;12.85;100.00;100353.97;4507597;31;35483;-89
2022/11/08 11:33:22;;;;;;;;;;;;;;;12.33;100.00;100353.44;4517084;31;34617;-88
2022/11/08 11:36:09;;;;;;;;;;;;;;;12.17;100.00;100349.34;4505875;31;34392;-88
2022/11/08 11:39:03;;;;;;;;;;;;;;;12.83;99.69;100356.22;4280396;31;7174702;-88
2022/11/08 11:42:02;;;;;;;;;;;;;;;12.82;100.00;100346.34;4501761;31;34825;-89
2022/11/08 11:45:23;;;;;;;;;;;;;;;12.30;100.00;100345.81;4503377;31;34960;-89
2022/11/08 11:48:15;;;;;;;;;;;;;;;12.14;100.00;100339.78;4498147;31;33746;-86
2022/11/08 11:51:03;;;;;;;;;;;;;;;13.03;100.00;100352.19;4501032;31;35004;-88
2022/11/08 11:53:51;;;;;;;;;;;;;;;13.38;96.96;100344.28;4516208;31;34945;-88
2022/11/08 11:56:55;;;;;;;;;;;;;;;12.95;100.00;100342.78;4517471;31;34920;-88
2022/11/08 12:03:02;;;;;;;;;;;;;;;12.82;99.08;100336.16;4501788;31;34850;-87
2022/11/08 12:05:58;;;;;;;;;;;;;;;12.86;100.00;100333.59;4514530;31;34778;-87
2022/11/08 12:08:46;;;;;;;;;;;;;;;12.92;100.00;100326.88;4505094;31;35341;-87
2022/11/08 12:11:44;;;;;;;;;;;;;;;13.39;100.00;100321.13;4513592;31;34160;-87
2022/11/08 12:14:38;;;;;;;;;;;;;;;13.44;99.68;100319.06;4501260;31;35221;-89
2022/11/08 12:17:32;;;;;;;;;;;;;;;13.16;100.00;100312.84;4502080;31;35188;-86
2022/11/08 12:20:25;;;;;;;;;;;;;;;12.69;100.00;100312.25;4498748;31;35709;-87
2022/11/08 12:23:25;;;;;;;;;;;;;;;12.96;100.00;100311.37;4512777;31;34820;-88
2022/11/08 12:26:18;;;;;;;;;;;;;;;12.93;100.00;100311.19;4501660;31;35461;-88
2022/11/08 12:29:16;;;;;;;;;;;;;;;13.37;100.00;100293.91;4512978;31;35986;-87
2022/11/08 12:32:06;;;;;;;;;;;;;;;13.45;100.00;100300.59;4499895;31;34930;-88
2022/11/08 12:35:18;;;;;;;;;;;;;;;12.94;100.00;100294.37;4512804;31;33649;-88
2022/11/08 12:38:22;;;;;;;;;;;;;;;12.69;100.00;100286.69;4500704;31;34883;-89
2022/11/08 12:41:35;;;;;;;;;;;;;;;13.39;100.00;100290.84;4512247;31;35764;-87
2022/11/08 12:44:59;;;;;;;38.65;21.02;;;;;;;13.83;100.00;100287.22;4507073;31;35199;-87
2022/11/08 12:48:28;;;;;;;40.15;21.87;;;;;;;13.84;100.00;100280.56;4509679;31;34328;-88
2022/11/08 12:51:31;;;;;;;39.72;22.75;;;;;;;14.08;98.88;100276.62;4487280;31;34142;-89
2022/11/08 12:54:28;;;;;;;40.92;21.58;;;;;;;13.76;100.00;100284.09;4495811;31;35001;-88
2022/11/08 12:57:26;;;;;;;37.47;20.83;;;;;;;14.08;99.12;100284.87;4511000;31;35148;-88
2022/11/08 13:00:18;;;;;;;36.05;20.92;;;;;;;14.00;100.00;100277.37;4510593;31;35133;-88
2022/11/08 13:03:31;;;;;;;;;;;;;;;14.48;98.64;100282.06;4498946;31;35503;-89
2022/11/08 13:09:34;;;;;;;;;;;;;;;14.00;100.00;100278.19;4500730;31;35032;-90
2022/11/08 13:12:25;;;;;;;;;;;;;;;14.35;100.00;100270.06;4510291;31;34099;-89
2022/11/08 13:15:27;;;;;;;;;;;;;;;15.05;96.18;100271.78;4510492;31;34938;-88
2022/11/08 13:18:15;;;;;;;;;;;;;;;14.80;97.55;100262.38;4501272;31;34863;-88
2022/11/08 13:21:21;;;;;;;;;;;;;;;15.34;95.03;100273.06;4513050;31;35673;-89
2022/11/08 13:24:14;;;;;;;;;;;;;;;15.42;94.30;100265.88;4498111;31;34028;-89
2022/11/08 13:27:29;;;;;;;;;;;;;;;15.50;93.95;100267.81;4513679;31;34909;-88
2022/11/08 13:30:19;;;;;;;;;;;;;;;15.39;94.95;100266.53;4499729;31;34721;-88
2022/11/08 13:33:14;;;;;;;;;;;;;;;15.61;94.52;100263.56;4513881;31;34520;-88
2022/11/08 13:36:24;;;;;;;38.10;20.70;;;;;;;15.58;95.39;100266.97;4501904;31;34181;-88
2022/11/08 13:39:21;;;;;;;37.58;19.12;;;;;;;15.32;97.91;100260.72;4501608;31;35288;-88
2022/11/08 13:42:15;;;;;;;34.28;19.50;;;;;;;14.95;99.37;100261.06;4501359;31;34930;-88
2022/11/08 13:45:23;;;;;;;34.90;19.02;;;;;;;14.61;100.00;100264.63;4513548;31;34770;-88
2022/11/08 13:48:24;;;;;;;;;;;;;;;15.40;97.50;100259.88;4512685;31;35204;-88
2022/11/08 13:51:20;;;;;;;;;;;;;;;15.44;96.50;100247.84;4503201;31;34974;-88
2022/11/08 13:54:19;;;;;;;;;;;;;;;15.67;94.89;100256.69;4511579;31;35029;-89
2022/11/08 13:57:17;;;;;;;;;;;;;;;15.46;97.26;100247.53;4513618;31;35005;-89
2022/11/08 14:00:08;;;;;;;;;;;;;;;15.36;98.67;100250.63;4500975;31;34146;-88
2022/11/08 14:03:02;;;;;;;;;;;;;;;15.72;97.10;100253.78;4511847;31;35884;-89
2022/11/08 14:05:56;;;;;;;;;;;;;;;15.64;97.72;100256.56;4501443;31;35148;-87
2022/11/08 14:08:52;;;;;;;;;;;;;;;15.68;96.57;100246.50;4500807;31;35641;-87
2022/11/08 14:12:04;;;;;;;;;;;;;;;15.94;94.68;100249.19;4513023;31;34276;-87
2022/11/08 14:14:57;;;;;;;;;;;;;;;16.00;95.83;100244.28;4512684;31;35932;-87
2022/11/08 14:17:47;;;;;;;;;;;;;;;16.02;96.10;100247.50;4509825;31;35672;-86
2022/11/08 14:20:42;;;;;;;;;;;;;;;16.01;95.26;100238.41;4489570;31;34930;-87
2022/11/08 14:23:31;;;;;;;;;;;;;;;15.81;94.50;100234.41;4500642;31;33944;-87
2022/11/08 14:26:22;;;;;;;;;;;;;;;15.90;94.15;100237.16;4499418;31;34904;-87
2022/11/08 14:29:19;;;;;;;;;;;;;;;15.88;95.23;100244.94;4502660;31;35313;-87
2022/11/08 14:32:18;;;;;;;34.47;18.02;;;;;;;15.94;94.93;100240.87;4510679;31;34501;-87
2022/11/08 14:38:16;;;;;;;35.97;23.33;;;;;;;15.70;94.23;100233.16;4500231;31;34713;-85
2022/11/08 14:41:05;;;;;;;36.72;19.52;;;;;;;15.77;94.17;100235.41;4512936;31;34988;-87
2022/11/08 14:47:02;;;;;;;33.33;18.40;;;;;;;16.04;92.19;100243.25;4495205;31;34110;-88
2022/11/08 14:49:57;;;;;;;35.78;18.50;;;;;;;16.17;91.84;100236.69;4485884;31;34655;-86
2022/11/08 14:52:49;;;;;;;29.85;17.75;;;;;;;16.23;90.43;100234.53;4495394;31;35074;-87
2022/11/08 14:55:36;;;;;;;35.00;20.12;;;;;;;15.89;92.30;100241.06;4493099;31;35008;-86
2022/11/08 14:58:32;;;;;;;;;;;;;;;16.27;89.56;100235.47;4491669;31;34009;-87
2022/11/08 15:04:17;;;;;;;;;;;;;;;15.68;92.36;100236.28;4484275;31;35225;-87